createdAt,value
2018-12-09T00:02:09.132Z,317.93
2018-12-09T00:04:40.686Z,319.80
2018-12-09T00:07:12.267Z,351.47
2018-12-09T00:09:41.553Z,339.60
2018-12-09T00:12:11.041Z,342.63
2018-12-09T00:14:41.891Z,330.73
2018-12-09T00:17:11.500Z,331.97
2018-12-09T00:19:41.198Z,317.60
2018-12-09T00:22:10.784Z,302.03
2018-12-09T00:24:40.323Z,298.10
2018-12-09T00:27:09.857Z,301.67
2018-12-09T00:29:39.281Z,292.63
2018-12-09T00:32:08.677Z,299.33
2018-12-09T00:34:38.175Z,301.10
2018-12-09T00:37:07.832Z,295.23
2018-12-09T00:39:37.475Z,166.23
2018-12-09T00:42:06.882Z,263.37
2018-12-09T00:44:38.112Z,255.20
2018-12-09T00:47:13.617Z,260.77
2018-12-09T00:49:43.171Z,271.07
2018-12-09T00:52:12.812Z,226.10
2018-12-09T00:54:42.240Z,128.90
2018-12-09T00:57:11.464Z,94.77
2018-12-09T00:59:40.856Z,78.87
2018-12-09T01:02:10.582Z,36.47
2018-12-09T01:04:39.967Z,24.53
2018-12-09T01:07:10.612Z,35.73
2018-12-09T01:09:39.964Z,11.03
2018-12-09T01:12:09.552Z,7.10
2018-12-09T01:14:39.311Z,5.60
2018-12-09T01:17:08.722Z,5.93
2018-12-09T01:19:38.212Z,6.20
2018-12-09T01:22:07.549Z,4.67
2018-12-09T01:24:37.016Z,6.00
2018-12-09T01:27:06.589Z,5.50
2018-12-09T01:29:36.263Z,5.47
2018-12-09T01:32:05.921Z,3.73
2018-12-09T01:34:35.485Z,4.10
2018-12-09T01:37:04.797Z,5.03
2018-12-09T01:39:34.518Z,9.50
2018-12-09T01:42:04.364Z,5.70
2018-12-09T01:44:33.856Z,6.43
2018-12-09T01:47:03.695Z,6.43
2018-12-09T01:49:33.082Z,4.57
2018-12-09T01:52:02.669Z,5.80
2018-12-09T01:54:32.325Z,7.13
2018-12-09T01:57:02.036Z,5.50
2018-12-09T01:59:31.364Z,5.70
2018-12-09T02:02:01.020Z,6.17
2018-12-09T02:04:30.464Z,11.20
2018-12-09T02:07:00.041Z,17.23
2018-12-09T02:09:30.695Z,57.47
2018-12-09T02:12:00.323Z,6.43
2018-12-09T02:14:29.864Z,27.27
2018-12-09T02:16:59.652Z,21.97
2018-12-09T02:19:29.243Z,37.90
2018-12-09T02:21:58.821Z,4.63
2018-12-09T02:24:28.340Z,3.67
2018-12-09T02:26:58.058Z,3.23
2018-12-09T02:29:27.317Z,4.73
2018-12-09T02:31:57.127Z,8.70
2018-12-09T02:34:26.571Z,4.27
2018-12-09T02:36:56.900Z,8.07
2018-12-09T02:39:26.462Z,3.57
2018-12-09T02:41:55.869Z,4.43
2018-12-09T02:44:25.562Z,3.83
2018-12-09T02:46:55.469Z,3.77
2018-12-09T02:49:24.894Z,5.37
2018-12-09T02:51:54.446Z,5.57
2018-12-09T02:54:24.213Z,4.90
2018-12-09T02:56:53.499Z,6.37
2018-12-09T02:59:22.771Z,5.60
2018-12-09T03:01:52.313Z,3.50
2018-12-09T03:04:21.915Z,6.80
2018-12-09T03:06:51.410Z,5.60
2018-12-09T03:09:21.002Z,8.10
2018-12-09T03:11:50.447Z,5.93
2018-12-09T03:14:19.983Z,5.17
2018-12-09T03:16:49.416Z,3.17
2018-12-09T03:19:18.808Z,3.07
2018-12-09T03:21:48.340Z,3.47
2018-12-09T03:24:17.819Z,3.83
2018-12-09T03:26:47.287Z,3.30
2018-12-09T03:29:16.674Z,4.37
2018-12-09T03:31:46.025Z,3.07
2018-12-09T03:34:15.674Z,3.17
2018-12-09T03:36:44.937Z,3.50
2018-12-09T03:39:14.516Z,4.93
2018-12-09T03:41:43.941Z,3.73
2018-12-09T03:44:13.342Z,7.10
2018-12-09T03:46:43.013Z,3.77
2018-12-09T03:49:12.736Z,4.80
2018-12-09T03:51:42.392Z,4.73
2018-12-09T03:54:12.028Z,5.07
2018-12-09T03:56:41.362Z,3.83
2018-12-09T03:59:11.132Z,3.83
2018-12-09T04:01:40.451Z,6.87
2018-12-09T04:04:09.967Z,6.07
2018-12-09T04:06:39.467Z,6.70
2018-12-09T04:09:08.905Z,10.27
2018-12-09T04:11:38.316Z,6.13
2018-12-09T04:14:07.767Z,4.97
2018-12-09T04:16:37.642Z,4.53
2018-12-09T04:19:07.145Z,3.80
2018-12-09T04:21:36.561Z,6.03
2018-12-09T04:24:06.397Z,4.00
2018-12-09T04:26:35.753Z,4.00
2018-12-09T04:29:05.205Z,3.00
2018-12-09T04:31:34.755Z,4.33
2018-12-09T04:34:04.185Z,3.27
2018-12-09T04:36:33.563Z,3.90
2018-12-09T04:39:04.118Z,4.57
2018-12-09T04:41:33.538Z,3.33
2018-12-09T04:44:03.171Z,4.00
2018-12-09T04:46:32.565Z,3.97
2018-12-09T04:49:02.129Z,2.97
2018-12-09T04:52:02.599Z,4.30
2018-12-09T04:54:32.007Z,4.33
2018-12-09T04:57:01.661Z,4.87
2018-12-09T04:59:32.744Z,4.37
2018-12-09T05:02:02.068Z,3.47
2018-12-09T05:04:31.493Z,5.73
2018-12-09T05:07:01.192Z,4.20
2018-12-09T05:09:31.876Z,4.90
2018-12-09T05:12:01.363Z,5.13
2018-12-09T05:14:30.712Z,6.00
2018-12-09T05:17:00.273Z,7.33
2018-12-09T05:19:29.868Z,4.30
2018-12-09T05:21:59.229Z,8.00
2018-12-09T05:24:28.840Z,6.80
2018-12-09T05:26:58.243Z,6.03
2018-12-09T05:29:28.011Z,6.60
2018-12-09T05:31:57.806Z,5.40
2018-12-09T05:34:27.335Z,12.10
2018-12-09T05:36:56.802Z,8.13
2018-12-09T05:39:26.298Z,5.77
2018-12-09T05:41:55.841Z,5.20
2018-12-09T05:44:25.095Z,5.67
2018-12-09T05:46:55.029Z,8.10
2018-12-09T05:49:24.572Z,5.77
2018-12-09T05:51:53.996Z,4.77
2018-12-09T05:54:23.723Z,4.70
2018-12-09T05:56:53.323Z,9.17
2018-12-09T05:59:22.872Z,6.80
2018-12-09T06:01:54.396Z,6.13
2018-12-09T06:04:23.892Z,17.57
2018-12-09T06:06:53.315Z,7.13
2018-12-09T06:09:22.862Z,6.73
2018-12-09T06:11:52.559Z,14.47
2018-12-09T06:14:22.028Z,8.77
2018-12-09T06:16:51.751Z,9.07
2018-12-09T06:19:21.143Z,7.93
2018-12-09T06:21:50.679Z,9.17
2018-12-09T06:24:20.348Z,10.30
2018-12-09T06:26:49.943Z,7.73
2018-12-09T06:29:19.656Z,9.50
2018-12-09T06:31:49.423Z,8.77
2018-12-09T06:34:18.959Z,14.40
2018-12-09T06:36:48.535Z,13.10
2018-12-09T06:39:18.100Z,13.23
2018-12-09T06:41:47.639Z,14.43
2018-12-09T06:44:17.391Z,14.97
2018-12-09T06:46:46.695Z,12.37
2018-12-09T06:49:16.341Z,14.10
2018-12-09T06:51:45.805Z,10.23
2018-12-09T06:54:15.423Z,9.50
2018-12-09T06:56:44.658Z,9.57
2018-12-09T06:59:13.924Z,10.23
2018-12-09T07:01:43.995Z,8.70
2018-12-09T07:04:13.483Z,9.03
2018-12-09T07:06:42.817Z,8.17
2018-12-09T07:09:12.256Z,13.17
2018-12-09T07:11:41.901Z,10.67
2018-12-09T07:14:11.171Z,12.47
2018-12-09T07:16:41.027Z,11.10
2018-12-09T07:19:10.540Z,18.00
2018-12-09T07:21:40.047Z,52.10
2018-12-09T07:24:09.609Z,38.53
2018-12-09T07:26:39.025Z,29.67
2018-12-09T07:29:08.678Z,15.97
2018-12-09T07:31:38.002Z,9.77
2018-12-09T07:34:07.649Z,11.87
2018-12-09T07:36:37.380Z,10.10
2018-12-09T07:39:08.522Z,11.97
2018-12-09T07:41:38.012Z,7.97
2018-12-09T07:44:07.787Z,11.83
2018-12-09T07:46:37.325Z,7.67
2018-12-09T07:49:06.859Z,8.27
2018-12-09T07:51:36.360Z,13.07
2018-12-09T07:54:06.126Z,9.90
2018-12-09T07:56:35.670Z,8.13
2018-12-09T07:59:07.100Z,7.50
2018-12-09T08:01:36.449Z,7.93
2018-12-09T08:04:06.179Z,14.03
2018-12-09T08:06:35.421Z,9.07
2018-12-09T08:09:05.804Z,4.73
2018-12-09T08:11:35.564Z,6.97
2018-12-09T08:14:05.097Z,9.20
2018-12-09T08:16:34.619Z,6.53
2018-12-09T08:19:04.306Z,5.83
2018-12-09T08:21:33.865Z,7.30
2018-12-09T08:24:03.294Z,7.57
2018-12-09T08:26:32.998Z,5.90
2018-12-09T08:29:02.545Z,6.47
2018-12-09T08:31:32.292Z,6.33
2018-12-09T08:34:01.840Z,10.43
2018-12-09T08:36:31.313Z,11.00
2018-12-09T08:39:00.726Z,6.77
2018-12-09T08:41:31.328Z,10.30
2018-12-09T08:44:00.673Z,7.30
2018-12-09T08:46:30.384Z,7.13
2018-12-09T08:48:59.821Z,7.07
2018-12-09T08:51:29.322Z,6.60
2018-12-09T08:53:59.124Z,8.03
2018-12-09T08:56:30.319Z,8.67
2018-12-09T08:58:59.592Z,11.07
2018-12-09T09:01:29.027Z,6.90
2018-12-09T09:03:58.440Z,8.53
2018-12-09T09:06:27.843Z,9.03
2018-12-09T09:08:57.276Z,9.07
2018-12-09T09:11:27.068Z,8.67
2018-12-09T09:13:56.564Z,7.70
2018-12-09T09:16:26.335Z,12.73
2018-12-09T09:18:56.013Z,11.17
2018-12-09T09:21:25.673Z,10.03
2018-12-09T09:23:55.238Z,7.57
2018-12-09T09:26:24.840Z,13.43
2018-12-09T09:28:54.334Z,9.30
2018-12-09T09:31:23.951Z,6.73
2018-12-09T09:33:53.356Z,7.67
2018-12-09T09:36:22.910Z,6.03
2018-12-09T09:38:52.437Z,6.63
2018-12-09T09:41:21.979Z,6.63
2018-12-09T09:43:51.826Z,16.07
2018-12-09T09:46:21.596Z,13.43
2018-12-09T09:48:51.194Z,9.13
2018-12-09T09:51:20.984Z,6.73
2018-12-09T09:53:57.051Z,5.67
2018-12-09T09:56:26.680Z,9.67
2018-12-09T09:58:56.146Z,7.83
2018-12-09T10:01:25.551Z,4.30
2018-12-09T10:03:55.071Z,7.57
2018-12-09T10:06:24.452Z,6.63
2018-12-09T10:08:53.986Z,6.70
2018-12-09T10:11:23.312Z,5.80
2018-12-09T10:13:54.085Z,5.70
2018-12-09T10:16:23.527Z,9.10
2018-12-09T10:18:53.074Z,7.23
2018-12-09T10:21:22.648Z,7.07
2018-12-09T10:23:52.105Z,6.03
2018-12-09T10:26:21.662Z,8.27
2018-12-09T10:28:51.036Z,7.33
2018-12-09T10:31:20.494Z,8.40
2018-12-09T10:33:50.238Z,7.67
2018-12-09T10:36:19.492Z,6.80
2018-12-09T10:38:49.334Z,5.90
2018-12-09T10:41:18.644Z,5.30
2018-12-09T10:43:48.127Z,4.07
2018-12-09T10:46:17.721Z,6.10
2018-12-09T10:48:47.366Z,5.53
2018-12-09T10:51:16.701Z,7.50
2018-12-09T10:53:46.150Z,5.23
2018-12-09T10:56:15.434Z,8.67
2018-12-09T10:58:45.140Z,9.03
2018-12-09T11:01:19.828Z,6.10
2018-12-09T11:03:50.646Z,8.20
2018-12-09T11:06:20.235Z,7.37
2018-12-09T11:08:49.589Z,5.47
2018-12-09T11:11:18.837Z,7.30
2018-12-09T11:13:48.119Z,7.37
2018-12-09T11:16:17.387Z,6.27
2018-12-09T11:18:46.606Z,7.73
2018-12-09T11:21:16.233Z,7.77
2018-12-09T11:23:45.776Z,6.40
2018-12-09T11:26:15.336Z,9.50
2018-12-09T11:28:44.943Z,7.70
2018-12-09T11:31:14.526Z,13.90
2018-12-09T11:33:43.950Z,8.57
2018-12-09T11:36:13.289Z,12.83
2018-12-09T11:38:43.033Z,10.03
2018-12-09T11:41:12.843Z,11.10
2018-12-09T11:43:42.313Z,12.43
2018-12-09T11:46:11.756Z,12.67
2018-12-09T11:48:41.322Z,10.83
2018-12-09T11:51:10.815Z,10.70
2018-12-09T11:53:40.329Z,10.07
2018-12-09T11:56:10.168Z,9.83
2018-12-09T11:58:39.955Z,11.13
2018-12-09T12:01:09.498Z,10.40
2018-12-09T12:03:38.891Z,10.10
2018-12-09T12:06:08.729Z,9.10
2018-12-09T12:08:38.267Z,9.03
2018-12-09T12:11:07.748Z,10.07
2018-12-09T12:13:37.096Z,9.77
2018-12-09T12:16:06.864Z,11.30
2018-12-09T12:18:36.412Z,14.20
2018-12-09T12:21:06.943Z,10.23
2018-12-09T12:23:36.555Z,12.57
2018-12-09T12:26:06.163Z,19.43
2018-12-09T12:28:35.932Z,14.33
2018-12-09T12:31:05.686Z,12.27
2018-12-09T12:33:35.210Z,11.87
2018-12-09T12:36:04.934Z,11.63
2018-12-09T12:38:34.386Z,14.13
2018-12-09T12:41:03.831Z,14.50
2018-12-09T12:43:33.307Z,15.33
2018-12-09T12:46:02.604Z,13.37
2018-12-09T12:48:32.383Z,11.20
2018-12-09T12:51:02.128Z,13.27
2018-12-09T12:53:31.794Z,14.27
2018-12-09T12:56:01.363Z,15.30
2018-12-09T12:58:32.197Z,12.07
2018-12-09T13:01:01.636Z,15.40
2018-12-09T13:03:31.418Z,18.63
2018-12-09T13:06:00.966Z,15.23
2018-12-09T13:08:30.506Z,12.20
2018-12-09T13:10:59.910Z,12.10
2018-12-09T13:13:29.533Z,12.93
2018-12-09T13:16:00.133Z,16.20
2018-12-09T13:18:29.705Z,17.03
2018-12-09T13:20:59.348Z,12.17
2018-12-09T13:23:28.932Z,15.70
2018-12-09T13:25:58.963Z,14.17
2018-12-09T13:28:29.449Z,15.53
2018-12-09T13:30:59.039Z,17.40
2018-12-09T13:33:28.689Z,16.97
2018-12-09T13:35:58.506Z,14.53
2018-12-09T13:38:27.932Z,15.63
2018-12-09T13:40:57.343Z,18.97
2018-12-09T13:43:26.871Z,17.33
2018-12-09T13:45:56.523Z,19.77
2018-12-09T13:48:26.002Z,25.00
2018-12-09T13:50:55.416Z,24.03
2018-12-09T13:53:24.965Z,28.07
2018-12-09T13:55:55.469Z,27.93
2018-12-09T13:58:24.889Z,29.10
2018-12-09T14:00:54.327Z,34.43
2018-12-09T14:03:23.596Z,36.53
2018-12-09T14:05:53.190Z,31.17
2018-12-09T14:08:22.671Z,33.57
2018-12-09T14:10:52.312Z,28.20
2018-12-09T14:13:21.599Z,28.07
2018-12-09T14:15:50.896Z,26.57
2018-12-09T14:18:20.612Z,25.40
2018-12-09T14:20:49.983Z,26.33
2018-12-09T14:23:19.397Z,21.97
2018-12-09T14:25:49.012Z,23.37
2018-12-09T14:28:18.615Z,31.27
2018-12-09T14:30:48.052Z,97.03
2018-12-09T14:33:17.676Z,62.07
2018-12-09T14:35:47.056Z,42.50
2018-12-09T14:38:16.653Z,74.53
2018-12-09T14:40:46.116Z,46.00
2018-12-09T14:43:15.485Z,60.13
2018-12-09T14:45:48.991Z,49.43
2018-12-09T14:48:16.360Z,156.97
2018-12-09T14:50:45.899Z,54.90
2018-12-09T14:53:15.336Z,90.97
2018-12-09T14:55:44.873Z,46.30
2018-12-09T14:58:14.631Z,51.93
2018-12-09T15:00:44.430Z,51.23
2018-12-09T15:03:13.851Z,45.73
2018-12-09T15:05:43.275Z,81.50
2018-12-09T15:08:12.864Z,67.10
2018-12-09T15:10:42.162Z,50.97
2018-12-09T15:13:11.464Z,42.73
2018-12-09T15:15:40.973Z,49.30
2018-12-09T15:18:10.681Z,50.00
2018-12-09T15:20:40.226Z,53.90
2018-12-09T15:23:09.552Z,48.23
2018-12-09T15:25:39.151Z,48.27
2018-12-09T15:28:08.845Z,47.70
2018-12-09T15:30:38.330Z,51.93
2018-12-09T15:33:08.069Z,46.03
2018-12-09T15:35:37.508Z,50.50
2018-12-09T15:38:07.192Z,47.23
2018-12-09T15:40:37.104Z,46.77
2018-12-09T15:43:06.374Z,48.90
2018-12-09T15:45:36.003Z,48.70
2018-12-09T15:48:06.306Z,56.30
2018-12-09T15:50:36.003Z,49.03
2018-12-09T15:53:05.548Z,89.57
2018-12-09T15:55:35.079Z,54.73
2018-12-09T15:58:04.562Z,47.30
2018-12-09T16:00:38.703Z,75.30
2018-12-09T16:03:08.410Z,59.70
2018-12-09T16:05:37.950Z,40.90
2018-12-09T16:08:07.535Z,39.60
2018-12-09T16:10:36.809Z,40.90
2018-12-09T16:13:06.033Z,41.43
2018-12-09T16:15:35.323Z,39.20
2018-12-09T16:18:04.763Z,38.03
2018-12-09T16:20:34.165Z,42.17
2018-12-09T16:23:03.529Z,49.17
2018-12-09T16:25:33.056Z,49.00
2018-12-09T16:28:02.442Z,54.00
2018-12-09T16:30:31.760Z,59.70
2018-12-09T16:33:01.287Z,52.67
2018-12-09T16:35:30.781Z,66.63
2018-12-09T16:38:00.048Z,63.53
2018-12-09T16:40:30.737Z,59.43
2018-12-09T16:42:59.977Z,55.57
2018-12-09T16:45:29.246Z,57.40
2018-12-09T16:47:58.656Z,56.23
2018-12-09T16:50:28.141Z,54.67
2018-12-09T16:52:57.681Z,57.80
2018-12-09T16:55:26.901Z,62.97
2018-12-09T16:57:56.200Z,65.67
2018-12-09T17:00:25.627Z,57.47
2018-12-09T17:02:54.808Z,67.87
2018-12-09T17:05:24.191Z,81.43
2018-12-09T17:07:53.607Z,90.13
2018-12-09T17:10:22.887Z,109.63
2018-12-09T17:12:52.215Z,190.53
2018-12-09T17:15:21.543Z,63.10
2018-12-09T17:17:50.832Z,42.40
2018-12-09T17:20:20.014Z,48.40
2018-12-09T17:22:49.461Z,49.30
2018-12-09T17:25:18.789Z,49.70
2018-12-09T17:27:48.234Z,50.37
2018-12-09T17:30:17.887Z,45.93
2018-12-09T17:32:47.372Z,47.63
2018-12-09T17:35:16.736Z,66.80
2018-12-09T17:37:46.230Z,131.87
2018-12-09T17:40:15.571Z,40.63
2018-12-09T17:42:44.863Z,39.23
2018-12-09T17:45:14.103Z,38.30
2018-12-09T17:47:43.480Z,34.93
2018-12-09T17:50:12.883Z,44.07
2018-12-09T17:52:42.204Z,105.50
2018-12-09T17:55:11.497Z,91.70
2018-12-09T17:57:40.663Z,88.90
2018-12-09T18:00:11.202Z,112.47
2018-12-09T18:02:40.572Z,104.43
2018-12-09T18:05:09.951Z,103.27
2018-12-09T18:07:39.520Z,106.97
2018-12-09T18:10:09.195Z,98.27
2018-12-09T18:12:38.426Z,109.23
2018-12-09T18:15:12.623Z,137.10
2018-12-09T18:17:41.888Z,121.13
2018-12-09T18:20:11.309Z,119.00
2018-12-09T18:22:40.692Z,106.20
2018-12-09T18:25:10.079Z,119.57
2018-12-09T18:27:39.493Z,109.13
2018-12-09T18:30:08.869Z,96.80
2018-12-09T18:32:38.235Z,101.50
2018-12-09T18:35:08.835Z,102.30
2018-12-09T18:37:38.467Z,99.57
2018-12-09T18:40:08.851Z,83.53
2018-12-09T18:42:38.094Z,134.23
2018-12-09T18:45:07.521Z,133.70
2018-12-09T18:47:37.004Z,101.37
2018-12-09T18:50:06.621Z,97.43
2018-12-09T18:52:35.992Z,111.10
2018-12-09T18:55:05.841Z,89.63
2018-12-09T18:57:35.225Z,118.23
2018-12-09T19:00:05.314Z,124.87
2018-12-09T19:02:34.802Z,113.10
2018-12-09T19:05:04.873Z,89.67
2018-12-09T19:07:34.233Z,87.33
2018-12-09T19:10:03.651Z,114.73
2018-12-09T19:12:33.122Z,97.97
2018-12-09T19:15:02.543Z,100.37
2018-12-09T19:17:33.018Z,111.33
2018-12-09T19:20:02.509Z,107.37
2018-12-09T19:22:31.840Z,118.73
2018-12-09T19:25:01.371Z,120.90
2018-12-09T19:27:31.757Z,114.10
2018-12-09T19:30:01.226Z,122.27
2018-12-09T19:32:30.841Z,137.50
2018-12-09T19:35:00.277Z,124.17
2018-12-09T19:37:29.516Z,170.67
2018-12-09T19:39:59.042Z,155.40
2018-12-09T19:42:28.365Z,131.93
2018-12-09T19:44:57.616Z,147.57
2018-12-09T19:47:27.169Z,151.57
2018-12-09T19:49:56.692Z,174.00
2018-12-09T19:52:26.066Z,143.07
2018-12-09T19:54:55.404Z,141.47
2018-12-09T19:57:24.771Z,159.10
2018-12-09T19:59:55.123Z,148.30
2018-12-09T20:02:24.493Z,143.83
2018-12-09T20:04:53.778Z,121.27
2018-12-09T20:07:23.235Z,123.60
2018-12-09T20:09:52.453Z,130.93
2018-12-09T20:12:21.776Z,130.70
2018-12-09T20:14:51.106Z,143.67
2018-12-09T20:17:20.340Z,136.60
2018-12-09T20:19:49.572Z,129.37
2018-12-09T20:22:18.890Z,137.63
2018-12-09T20:24:48.132Z,129.33
2018-12-09T20:27:17.654Z,141.73
2018-12-09T20:29:47.019Z,142.77
2018-12-09T20:32:16.517Z,120.53
2018-12-09T20:34:46.046Z,120.30
2018-12-09T20:37:15.434Z,128.10
2018-12-09T20:39:44.755Z,141.73
2018-12-09T20:42:14.265Z,123.47
2018-12-09T20:44:43.534Z,122.90
2018-12-09T20:47:13.859Z,121.80
2018-12-09T20:49:43.217Z,106.73
2018-12-09T20:52:12.440Z,101.73
2018-12-09T20:54:41.806Z,95.00
2018-12-09T20:57:11.195Z,90.63
2018-12-09T20:59:40.602Z,100.20
2018-12-09T21:02:10.075Z,89.00
2018-12-09T21:04:39.561Z,84.57
2018-12-09T21:07:08.913Z,82.93
2018-12-09T21:09:38.706Z,90.60
2018-12-09T21:12:08.242Z,90.63
2018-12-09T21:14:37.511Z,85.87
2018-12-09T21:17:06.757Z,88.53
2018-12-09T21:19:36.216Z,85.47
2018-12-09T21:22:05.510Z,86.30
2018-12-09T21:24:34.965Z,86.27
2018-12-09T21:27:04.579Z,81.97
2018-12-09T21:29:33.888Z,87.53
2018-12-09T21:32:03.264Z,88.60
2018-12-09T21:34:32.471Z,86.10
2018-12-09T21:37:01.974Z,72.17
2018-12-09T21:39:31.337Z,79.23
2018-12-09T21:42:00.739Z,74.40
2018-12-09T21:44:29.997Z,76.80
2018-12-09T21:46:59.343Z,77.57
2018-12-09T21:49:28.570Z,67.60
2018-12-09T21:51:57.929Z,66.20
2018-12-09T21:54:27.293Z,60.37
2018-12-09T21:56:56.563Z,70.70
2018-12-09T21:59:25.938Z,60.27
2018-12-09T22:01:55.255Z,61.13
2018-12-09T22:04:24.749Z,54.93
2018-12-09T22:06:54.200Z,64.10
2018-12-09T22:09:23.664Z,57.53
2018-12-09T22:11:52.880Z,60.97
2018-12-09T22:14:22.289Z,59.83
2018-12-09T22:16:51.569Z,57.60
2018-12-09T22:19:21.907Z,56.10
2018-12-09T22:21:51.205Z,55.97
2018-12-09T22:24:20.703Z,56.90
2018-12-09T22:26:50.245Z,51.73
2018-12-09T22:29:19.719Z,59.70
2018-12-09T22:31:49.159Z,60.00
2018-12-09T22:34:18.533Z,61.00
2018-12-09T22:36:47.849Z,57.23
2018-12-09T22:39:17.365Z,59.83
2018-12-09T22:41:46.835Z,63.57
2018-12-09T22:44:16.292Z,65.93
2018-12-09T22:46:45.515Z,62.03
2018-12-09T22:49:14.760Z,67.07
2018-12-09T22:51:44.042Z,67.37
2018-12-09T22:54:13.425Z,68.53
2018-12-09T22:56:42.803Z,73.93
2018-12-09T22:59:12.257Z,61.67
2018-12-09T23:04:31.642Z,64.03
2018-12-09T23:07:05.982Z,59.13
2018-12-09T23:09:35.384Z,61.70
2018-12-09T23:12:04.720Z,63.33
2018-12-09T23:14:33.948Z,59.30
2018-12-09T23:17:03.369Z,62.33
2018-12-09T23:19:32.803Z,67.87
2018-12-09T23:22:02.286Z,61.30
2018-12-09T23:24:31.478Z,52.87
2018-12-09T23:27:00.839Z,62.27
2018-12-09T23:29:30.164Z,65.37
2018-12-09T23:31:59.559Z,57.73
2018-12-09T23:34:28.908Z,57.57
2018-12-09T23:36:58.183Z,54.77
2018-12-09T23:39:27.519Z,55.80
2018-12-09T23:41:56.944Z,56.17
2018-12-09T23:44:26.263Z,56.10
2018-12-09T23:46:55.858Z,60.60
2018-12-09T23:49:25.436Z,51.03
2018-12-09T23:51:54.936Z,50.77
2018-12-09T23:54:24.294Z,53.50
2018-12-09T23:56:53.764Z,52.47
2018-12-09T23:59:22.999Z,50.90
